.
WxDataArchive / Data Records for 2007-10-25
2007-10-24 October 2007 2007-10-26

Data Records for Thursday, 25 October 2007

Time	Temp	Chill	HIndex	Humid	Dewpt	 Wind 	HiWind	WindDir	Rain 	Barom 
-----	----	-----	------	-----	-----	------	------	-------	-----	----- 
00:00	42.2	42.2	42.2	78	35.8	1	3	112	0.00	30.162 
00:05	42.2	42.2	42.2	78	35.8	0	3	90	0.00	30.166 
00:10	42.2	42.2	42.2	78	35.8	1	4	112	0.00	30.164 
00:15	42.2	42.2	42.2	78	35.8	1	4	90	0.00	30.161 
00:20	42.2	42.2	42.2	78	35.8	1	3	68	0.00	30.169 
00:25	42.2	42.2	42.2	78	35.8	1	5	112	0.00	30.174 
00:30	42.2	42.2	42.2	78	35.8	1	3	112	0.00	30.172 
00:35	42.1	42.1	42.1	78	35.7	1	3	90	0.00	30.174 
00:40	41.9	41.9	41.9	78	35.5	0	3	90	0.00	30.170 
00:45	41.9	41.9	41.9	78	35.5	1	4	90	0.00	30.170 
00:50	41.9	41.9	41.9	78	35.5	1	3	90	0.00	30.174 
00:55	41.9	41.9	41.9	78	35.5	1	3	90	0.00	30.175 
01:00	41.8	41.8	41.8	79	35.8	1	4	68	0.00	30.173 
01:05	41.8	41.8	41.8	79	35.8	1	4	112	0.00	30.174 
01:10	41.6	41.6	41.6	79	35.6	1	4	112	0.00	30.175 
01:15	41.6	41.6	41.6	78	35.3	1	9	112	0.00	30.172 
01:20	41.6	41.6	41.6	79	35.6	1	2	135	0.00	30.172 
01:25	41.5	41.5	41.5	79	35.5	1	4	112	0.00	30.174 
01:30	41.5	41.5	41.5	79	35.5	0	2	45	0.00	30.174 
01:35	41.3	41.3	41.3	79	35.3	1	2	45	0.00	30.174 
01:40	41.2	41.2	41.2	80	35.5	0	2	68	0.00	30.165 
01:45	41.1	41.1	41.1	80	35.4	1	3	90	0.00	30.164 
01:50	41.1	41.1	41.1	80	35.4	1	4	90	0.00	30.166 
01:55	41.1	41.1	41.1	80	35.4	1	6	90	0.00	30.174 
02:00	41.1	41.1	41.1	80	35.4	1	5	90	0.00	30.174 
02:05	41.1	41.1	41.1	80	35.4	1	4	90	0.00	30.173 
02:10	41.1	41.1	41.1	80	35.4	1	3	90	0.00	30.174 
02:15	40.9	40.9	40.9	80	35.2	0	2	68	0.00	30.175 
02:20	40.9	40.9	40.9	80	35.2	1	3	68	0.00	30.176 
02:25	40.8	40.8	40.8	80	35.1	0	4	68	0.00	30.174 
02:30	40.6	40.6	40.6	80	34.9	0	3	90	0.00	30.168 
02:35	40.6	40.6	40.6	80	34.9	1	2	90	0.00	30.170 
02:40	40.6	40.6	40.6	81	35.2	1	4	90	0.00	30.167 
02:45	40.5	40.5	40.5	81	35.1	1	3	112	0.00	30.164 
02:50	40.5	40.5	40.5	81	35.1	0	1	112	0.00	30.163 
02:55	40.5	40.5	40.5	80	34.8	1	4	112	0.00	30.160 
03:00	40.5	40.5	40.5	80	34.8	0	4	90	0.00	30.159 
03:05	40.3	40.3	40.3	80	34.6	1	4	112	0.00	30.157 
03:10	40.3	40.3	40.3	80	34.6	1	5	90	0.00	30.154 
03:15	40.3	40.3	40.3	80	34.6	1	6	112	0.00	30.156 
03:20	40.3	40.3	40.3	80	34.6	1	3	112	0.00	30.151 
03:25	40.3	40.3	40.3	80	34.6	1	3	68	0.00	30.150 
03:30	40.3	40.3	40.3	80	34.6	1	4	68	0.00	30.149 
03:35	40.5	40.5	40.5	80	34.8	1	5	112	0.00	30.148 
03:40	40.6	40.6	40.6	79	34.6	2	7	135	0.00	30.150 
03:45	40.8	40.8	40.8	79	34.8	1	6	90	0.00	30.150 
03:50	40.8	40.8	40.8	79	34.8	1	6	45	0.00	30.154 
03:55	40.8	40.8	40.8	79	34.8	1	4	135	0.00	30.154 
04:00	40.8	40.8	40.8	79	34.8	1	6	112	0.00	30.157 
04:05	40.9	40.9	40.9	79	34.9	1	5	112	0.00	30.157 
04:10	40.8	40.8	40.8	80	35.1	0	5	112	0.00	30.153 
04:15	40.6	40.6	40.6	80	34.9	1	5	135	0.00	30.147 
04:20	40.6	40.6	40.6	80	34.9	0	4	158	0.00	30.149 
04:25	40.5	40.5	40.5	81	35.1	0	2	338	0.00	30.148 
04:30	40.2	40.2	40.2	81	34.8	0	5	45	0.00	30.154 
04:35	40.1	40.1	40.1	81	34.7	1	4	90	0.00	30.160 
04:40	39.9	39.9	39.9	82	34.9	0	4	135	0.00	30.159 
04:45	39.8	39.8	39.8	82	34.8	0	3	135	0.00	30.162 
04:50	39.6	39.6	39.6	83	34.9	1	5	135	0.00	30.162 
04:55	39.6	39.6	39.6	83	34.9	1	5	90	0.00	30.163 
05:00	39.6	39.6	39.6	83	34.9	1	4	90	0.00	30.162 
05:05	39.6	39.6	39.6	83	34.9	1	4	225	0.00	30.163 
05:10	39.8	39.8	39.8	83	35.1	1	6	135	0.00	30.162 
05:15	39.9	39.9	39.9	83	35.2	1	5	135	0.00	30.158 
05:20	39.9	39.9	39.9	83	35.2	1	4	90	0.00	30.154 
05:25	40.1	40.1	40.1	83	35.4	0	3	270	0.00	30.151 
05:30	40.1	40.1	40.1	83	35.4	1	5	90	0.00	30.154 
05:35	40.1	40.1	40.1	83	35.4	1	7	90	0.00	30.153 
05:40	40.1	40.1	40.1	83	35.4	1	4	68	0.00	30.155 
05:45	40.1	40.1	40.1	83	35.4	1	5	112	0.00	30.158 
05:50	40.1	40.1	40.1	84	35.7	1	5	135	0.00	30.159 
05:55	40.2	40.2	40.2	83	35.5	2	8	135	0.00	30.160 
06:00	40.3	40.3	40.3	83	35.6	1	7	112	0.00	30.157 
06:05	40.3	40.3	40.3	83	35.6	2	6	90	0.00	30.163 
06:10	40.3	40.3	40.3	84	35.9	1	3	90	0.00	30.156 
06:15	40.3	40.3	40.3	84	35.9	1	5	68	0.00	30.156 
06:20	40.3	40.3	40.3	84	35.9	2	4	135	0.00	30.161 
06:25	40.5	40.5	40.5	84	36.1	1	7	112	0.00	30.159 
06:30	40.5	40.5	40.5	84	36.1	1	5	90	0.00	30.157 
06:35	40.6	40.6	40.6	84	36.2	1	5	112	0.00	30.160 
06:40	40.6	40.6	40.6	84	36.2	1	4	90	0.00	30.161 
06:45	40.8	40.8	40.8	84	36.3	2	5	90	0.00	30.163 
06:50	40.9	40.9	40.9	84	36.4	1	6	68	0.00	30.162 
06:55	40.9	40.9	40.9	84	36.4	2	6	135	0.00	30.160 
07:00	41.1	41.1	41.1	84	36.6	2	7	112	0.00	30.158 
07:05	41.1	41.1	41.1	84	36.6	1	3	90	0.00	30.159 
07:10	41.2	41.2	41.2	83	36.4	1	7	112	0.00	30.161 
07:15	41.3	41.3	41.3	83	36.5	2	7	90	0.00	30.162 
07:20	41.5	41.5	41.5	82	36.4	2	9	90	0.00	30.164 
07:25	41.6	41.6	41.6	82	36.5	2	5	90	0.00	30.165 
07:30	41.9	41.9	41.9	81	36.5	3	7	90	0.00	30.168 
07:35	42.1	42.1	42.1	81	36.7	2	6	112	0.00	30.166 
07:40	42.3	42.3	42.3	80	36.6	3	9	90	0.00	30.168 
07:45	42.6	42.6	42.6	79	36.6	2	11	112	0.00	30.163 
07:50	43.1	43.1	43.1	78	36.7	3	7	90	0.00	30.164 
07:55	43.3	43.3	43.3	78	36.9	2	7	68	0.00	30.172 
08:00	43.8	43.8	43.8	77	37.1	3	7	90	0.00	30.172 
08:05	44.1	44.1	44.1	77	37.4	3	10	112	0.00	30.169 
08:10	44.5	42.5	44.5	75	37.1	4	13	90	0.00	30.170 
08:15	44.8	42.9	44.8	75	37.4	4	13	90	0.00	30.172 
08:20	45.1	45.1	45.1	74	37.3	3	9	45	0.00	30.173 
08:25	45.4	45.4	45.4	73	37.3	3	9	90	0.00	30.176 
08:30	45.8	45.8	45.8	73	37.6	3	10	112	0.00	30.172 
08:35	46.2	46.2	46.2	72	37.7	3	11	90	0.00	30.175 
08:40	46.7	45.1	46.7	71	37.8	4	11	90	0.00	30.175 
08:45	47.4	47.4	47.4	70	38.1	3	7	90	0.00	30.175 
08:50	47.7	46.2	47.7	69	38.0	4	10	112	0.00	30.172 
08:55	48.0	46.6	48.0	69	38.3	4	10	90	0.00	30.172 
09:00	48.2	48.2	48.2	69	38.5	3	9	112	0.00	30.171 
09:05	48.6	48.6	48.6	69	38.9	3	7	112	0.00	30.171 
09:10	49.1	49.1	49.1	68	39.0	3	11	112	0.00	30.174 
09:15	49.2	47.9	49.2	68	39.1	4	7	90	0.00	30.177 
09:20	49.2	47.9	49.2	68	39.1	4	13	90	0.00	30.176 
09:25	48.5	46.5	48.5	70	39.2	5	13	112	0.00	30.177 
09:30	48.5	48.5	48.5	71	39.5	3	9	90	0.00	30.176 
09:35	48.6	46.0	48.6	71	39.6	6	14	90	0.00	30.178 
09:40	48.8	47.5	48.8	71	39.8	4	10	90	0.00	30.177 
09:45	48.8	46.8	48.8	71	39.8	5	14	112	0.00	30.179 
09:50	48.6	46.6	48.6	72	40.0	5	13	90	0.00	30.182 
09:55	48.8	47.5	48.8	71	39.8	4	13	112	0.00	30.182 
10:00	49.8	49.8	49.8	72	41.1	3	7	90	0.00	30.180 
10:05	50.7	50.7	50.7	69	40.9	6	13	112	0.00	30.179 
10:10	50.8	50.8	50.8	70	41.4	6	13	90	0.00	30.175 
10:15	51.1	51.1	51.1	70	41.7	5	11	90	0.00	30.171 
10:20	51.4	51.4	51.4	69	41.6	5	10	90	0.00	30.165 
10:25	51.9	51.9	51.9	69	42.1	4	10	112	0.00	30.158 
10:30	52.2	52.2	52.2	69	42.3	4	8	112	0.00	30.158 
10:35	52.6	52.6	52.6	69	42.7	3	12	90	0.00	30.158 
10:40	53.1	53.1	53.1	68	42.8	4	12	90	0.00	30.157 
10:45	53.3	53.3	53.3	68	43.0	4	11	90	0.00	30.150 
10:50	52.9	52.9	52.9	68	42.6	7	18	90	0.00	30.149 
10:55	52.6	52.6	52.6	70	43.1	4	10	90	0.00	30.150 
11:00	52.9	52.9	52.9	69	43.0	6	14	112	0.00	30.148 
11:05	53.6	53.6	53.6	69	43.7	5	15	112	0.00	30.147 
11:10	54.2	54.2	54.2	68	43.9	5	12	112	0.00	30.143 
11:15	54.2	54.2	54.2	69	44.3	5	11	112	0.00	30.140 
11:20	54.1	54.1	54.1	68	43.8	5	15	112	0.00	30.140 
11:25	54.5	54.5	54.5	68	44.2	4	12	90	0.00	30.138 
11:30	54.8	54.8	54.8	67	44.1	5	16	90	0.00	30.131 
11:35	54.5	54.5	54.5	68	44.2	7	17	90	0.00	30.128 
11:40	54.8	54.8	54.8	68	44.4	6	14	90	0.00	30.128 
11:45	54.8	54.8	54.8	67	44.1	7	20	112	0.00	30.128 
11:50	54.8	54.8	54.8	68	44.4	7	16	90	0.00	30.122 
11:55	54.7	54.7	54.7	69	44.7	8	22	112	0.00	30.116 
12:00	55.0	55.0	55.0	69	45.0	5	14	112	0.00	30.120 
12:05	55.0	55.0	55.0	68	44.6	6	14	90	0.00	30.122 
12:10	55.0	55.0	55.0	69	45.0	6	14	90	0.00	30.115 
12:15	55.1	55.1	55.1	69	45.1	8	17	90	0.00	30.111 
12:20	55.3	55.3	55.3	69	45.3	6	12	112	0.00	30.111 
12:25	55.6	55.6	55.6	68	45.2	8	18	90	0.00	30.112 
12:30	55.3	55.3	55.3	68	44.9	8	19	90	0.00	30.117 
12:35	55.3	55.3	55.3	68	44.9	5	13	90	0.00	30.119 
12:40	55.6	55.6	55.6	68	45.2	5	13	112	0.00	30.116 
12:45	55.7	55.7	55.7	67	44.9	9	16	90	0.00	30.118 
12:50	55.9	55.9	55.9	66	44.7	8	16	90	0.00	30.111 
12:55	56.5	56.5	56.5	65	44.9	8	17	112	0.00	30.111 
13:00	56.5	56.5	56.5	65	44.9	8	19	90	0.00	30.110 
13:05	56.7	56.7	56.7	66	45.5	6	15	112	0.00	30.108 
13:10	57.0	57.0	57.0	63	44.5	8	18	90	0.00	30.107 
13:15	57.2	57.2	57.2	64	45.1	8	16	90	0.00	30.106 
13:20	56.9	56.9	56.9	64	44.8	9	18	112	0.00	30.105 
13:25	56.9	56.9	56.9	65	45.3	8	16	112	0.00	30.109 
13:30	56.9	56.9	56.9	65	45.3	9	17	90	0.00	30.108 
13:35	56.9	56.9	56.9	65	45.3	6	20	112	0.00	30.106 
13:40	57.5	57.5	57.5	64	45.4	7	16	90	0.00	30.100 
13:45	58.3	58.3	58.3	62	45.3	7	15	90	0.00	30.095 
13:50	58.0	58.0	58.0	63	45.5	8	16	90	0.00	30.094 
13:55	57.6	57.6	57.6	64	45.5	6	13	90	0.00	30.093 
14:00	57.6	57.6	57.6	63	45.1	9	19	112	0.00	30.096 
14:05	57.8	57.8	57.8	65	46.1	8	17	90	0.00	30.095 
14:10	58.1	58.1	58.1	63	45.6	7	17	90	0.00	30.098 
14:15	58.3	58.3	58.3	63	45.8	7	16	112	0.00	30.093 
14:20	58.0	58.0	58.0	63	45.5	5	14	90	0.00	30.091 
14:25	58.3	58.3	58.3	64	46.2	6	17	90	0.00	30.089 
14:30	58.4	58.4	58.4	62	45.4	7	15	90	0.00	30.084 
14:35	58.7	58.7	58.7	64	46.6	6	18	90	0.00	30.081 
14:40	58.9	58.9	58.9	63	46.3	7	15	90	0.00	30.080 
14:45	58.9	58.9	58.9	63	46.3	6	14	112	0.00	30.085 
14:50	58.7	58.7	58.7	63	46.1	5	14	90	0.00	30.082 
14:55	58.7	58.7	58.7	62	45.7	6	13	112	0.00	30.082 
15:00	58.4	58.4	58.4	62	45.4	9	17	112	0.00	30.081 
15:05	58.4	58.4	58.4	62	45.4	6	13	90	0.00	30.079 
15:10	58.3	58.3	58.3	62	45.3	7	14	90	0.00	30.082 
15:15	58.1	58.1	58.1	64	46.0	6	17	90	0.00	30.084 
15:20	58.4	58.4	58.4	60	44.6	8	18	90	0.00	30.082 
15:25	58.7	58.7	58.7	61	45.3	7	22	90	0.00	30.079 
15:30	58.7	58.7	58.7	64	46.6	4	10	90	0.00	30.078 
15:35	58.6	58.6	58.6	64	46.5	5	13	90	0.00	30.075 
15:40	58.6	58.6	58.6	64	46.5	4	12	90	0.00	30.073 
15:45	58.4	58.4	58.4	64	46.3	5	13	90	0.00	30.076 
15:50	58.3	58.3	58.3	65	46.6	5	15	90	0.00	30.082 
15:55	57.8	57.8	57.8	66	46.5	4	12	112	0.00	30.082 
16:00	57.8	57.8	57.8	66	46.5	5	14	90	0.00	30.084 
16:05	57.8	57.8	57.8	66	46.5	4	11	90	0.00	30.079 
16:10	57.6	57.6	57.6	67	46.7	4	11	112	0.00	30.086 
16:15	57.8	57.8	57.8	66	46.5	5	12	90	0.00	30.084 
16:20	58.1	58.1	58.1	65	46.4	5	12	112	0.00	30.089 
16:25	58.3	58.3	58.3	63	45.8	7	17	90	0.00	30.089 
16:30	58.1	58.1	58.1	63	45.6	6	12	112	0.00	30.092 
16:35	57.8	57.8	57.8	65	46.1	5	11	112	0.00	30.090 
16:40	57.6	57.6	57.6	65	45.9	5	12	90	0.00	30.088 
16:45	57.5	57.5	57.5	65	45.8	4	12	90	0.00	30.084 
16:50	57.5	57.5	57.5	65	45.8	5	12	90	0.00	30.083 
16:55	57.5	57.5	57.5	66	46.2	4	16	90	0.00	30.083 
17:00	57.3	57.3	57.3	66	46.0	4	10	112	0.00	30.083 
17:05	57.2	57.2	57.2	66	45.9	4	12	90	0.00	30.078 
17:10	57.0	57.0	57.0	65	45.4	5	10	90	0.00	30.081 
17:15	56.9	56.9	56.9	62	44.0	5	12	90	0.00	30.082 
17:20	56.7	56.7	56.7	60	43.0	6	13	90	0.00	30.083 
17:25	56.6	56.6	56.6	60	42.9	4	12	112	0.00	30.079 
17:30	56.3	56.3	56.3	61	43.0	3	11	90	0.00	30.078 
17:35	56.2	56.2	56.2	61	42.9	4	14	90	0.00	30.079 
17:40	56.0	56.0	56.0	61	42.7	5	16	90	0.00	30.080 
17:45	55.9	55.9	55.9	62	43.1	4	10	90	0.00	30.079 
17:50	55.9	55.9	55.9	62	43.1	7	17	90	0.00	30.080 
17:55	55.9	55.9	55.9	62	43.1	6	12	90	0.00	30.080 
18:00	55.7	55.7	55.7	62	42.9	6	14	90	0.00	30.084 
18:05	55.4	55.4	55.4	63	43.0	5	11	112	0.00	30.093 
18:10	55.3	55.3	55.3	64	43.3	5	11	112	0.00	30.097 
18:15	55.1	55.1	55.1	65	43.5	4	11	90	0.00	30.104 
18:20	54.8	54.8	54.8	66	43.7	3	11	90	0.00	30.099 
18:25	54.7	54.7	54.7	66	43.6	3	9	112	0.00	30.094 
18:30	54.5	54.5	54.5	67	43.8	4	11	90	0.00	30.092 
18:35	54.5	54.5	54.5	67	43.8	3	7	90	0.00	30.096 
18:40	54.4	54.4	54.4	67	43.7	4	10	112	0.00	30.097 
18:45	54.5	54.5	54.5	68	44.2	4	10	112	0.00	30.097 
18:50	54.5	54.5	54.5	68	44.2	4	11	112	0.00	30.095 
18:55	54.7	54.7	54.7	68	44.3	5	9	90	0.00	30.096 
19:00	54.8	54.8	54.8	68	44.4	4	11	112	0.00	30.095 
19:05	54.8	54.8	54.8	69	44.8	4	9	112	0.00	30.093 
19:10	54.8	54.8	54.8	69	44.8	4	9	90	0.00	30.092 
19:15	54.8	54.8	54.8	69	44.8	3	9	112	0.00	30.089 
19:20	54.8	54.8	54.8	70	45.2	3	9	112	0.00	30.082 
19:25	54.7	54.7	54.7	70	45.1	3	8	90	0.00	30.088 
19:30	54.7	54.7	54.7	71	45.5	3	9	90	0.00	30.097 
19:35	54.5	54.5	54.5	71	45.3	3	8	112	0.00	30.096 
19:40	54.5	54.5	54.5	72	45.7	5	10	112	0.00	30.096 
19:45	54.2	54.2	54.2	73	45.7	4	13	90	0.00	30.101 
19:50	54.1	54.1	54.1	73	45.6	4	11	90	0.00	30.102 
19:55	54.1	54.1	54.1	74	46.0	4	11	90	0.00	30.100 
20:00	53.9	53.9	53.9	74	45.8	2	6	90	0.00	30.097 
20:05	53.9	53.9	53.9	74	45.8	3	7	90	0.00	30.099 
20:10	53.8	53.8	53.8	75	46.1	3	10	90	0.00	30.100 
20:15	53.9	53.9	53.9	75	46.2	3	7	90	0.00	30.100 
20:20	53.9	53.9	53.9	75	46.2	2	6	90	0.00	30.101 
20:25	54.1	54.1	54.1	75	46.4	3	7	112	0.00	30.103 
20:30	54.1	54.1	54.1	75	46.4	3	7	112	0.00	30.099 
20:35	54.1	54.1	54.1	75	46.4	4	10	90	0.00	30.092 
20:40	54.2	54.2	54.2	75	46.4	3	9	90	0.00	30.092 
20:45	54.2	54.2	54.2	75	46.4	3	7	112	0.00	30.093 
20:50	54.2	54.2	54.2	75	46.4	4	10	90	0.00	30.094 
20:55	54.4	54.4	54.4	75	46.6	3	7	112	0.00	30.095 
21:00	54.4	54.4	54.4	74	46.3	4	10	90	0.00	30.087 
21:05	54.5	54.5	54.5	74	46.4	5	11	90	0.00	30.086 
21:10	54.7	54.7	54.7	73	46.2	4	13	90	0.00	30.084 
21:15	54.8	54.8	54.8	73	46.3	4	9	90	0.00	30.084 
21:20	55.0	55.0	55.0	72	46.1	5	11	90	0.00	30.088 
21:25	55.0	55.0	55.0	72	46.1	4	9	90	0.00	30.099 
21:30	55.1	55.1	55.1	71	45.9	4	10	112	0.00	30.095 
21:35	55.3	55.3	55.3	70	45.7	5	10	90	0.00	30.099 
21:40	55.3	55.3	55.3	70	45.7	3	12	90	0.00	30.097 
21:45	55.3	55.3	55.3	69	45.3	3	6	112	0.00	30.096 
21:50	55.3	55.3	55.3	68	44.9	4	9	112	0.00	30.092 
21:55	55.4	55.4	55.4	68	45.0	3	6	112	0.00	30.093 
22:00	55.4	55.4	55.4	68	45.0	3	9	90	0.00	30.092 
22:05	55.6	55.6	55.6	67	44.8	4	9	90	0.00	30.095 
22:10	55.7	55.7	55.7	67	44.9	4	10	90	0.00	30.096 
22:15	55.7	55.7	55.7	66	44.5	3	13	90	0.00	30.096 
22:20	55.7	55.7	55.7	66	44.5	3	9	90	0.00	30.096 
22:25	55.7	55.7	55.7	66	44.5	3	10	90	0.00	30.091 
22:30	55.7	55.7	55.7	65	44.1	4	10	90	0.00	30.086 
22:35	55.9	55.9	55.9	65	44.3	4	11	112	0.00	30.085 
22:40	55.9	55.9	55.9	66	44.7	3	7	90	0.00	30.086 
22:45	55.9	55.9	55.9	65	44.3	4	11	90	0.00	30.089 
22:50	55.9	55.9	55.9	65	44.3	4	9	90	0.00	30.087 
22:55	55.9	55.9	55.9	65	44.3	3	8	90	0.00	30.086 
23:00	55.9	55.9	55.9	65	44.3	4	10	90	0.00	30.085 
23:05	55.9	55.9	55.9	65	44.3	4	9	90	0.00	30.082 
23:10	55.9	55.9	55.9	65	44.3	4	10	90	0.00	30.082 
23:15	55.9	55.9	55.9	65	44.3	4	12	90	0.00	30.081 
23:20	55.9	55.9	55.9	65	44.3	5	12	112	0.00	30.083 
23:25	55.7	55.7	55.7	66	44.5	3	7	90	0.00	30.082 
23:30	55.7	55.7	55.7	66	44.5	4	9	90	0.00	30.082 
23:35	55.7	55.7	55.7	66	44.5	4	10	90	0.00	30.082 
23:40	55.6	55.6	55.6	66	44.4	4	11	90	0.00	30.082 
23:45	55.6	55.6	55.6	67	44.8	3	6	90	0.00	30.082 
23:50	55.6	55.6	55.6	67	44.8	2	6	90	0.00	30.081 
23:55	55.6	55.6	55.6	67	44.8	3	7	90	0.00	30.081 

CoCoRaHS
IN-AL-39
A2 Web Hosting
Creative Commons License
GoDaddy
Look for:

loaded 2017-12-10 21:44:02 • last modified 2010-11-18 10:43:29
Privacy PolicyDisclaimer
• wx.awcolley.com is powered by PmWiki v.2002016 •
• all content (unless otherwise noted) © 2017 A W Colley